KGIF/GIF METAR and TAF weather

Enter ICAO airport designator
Station Type Date Time Source
KGIF METAR 2019/08/21 22:53 UTC NOAA

KGIF 212253Z AUTO 12010KT 10SM CLR 31/23 A3005 RMK AO2 LTG DSNT SE AND W SLP172 T03110233


Station Type Date Time Source
KGIF Decoded METAR 2019/08/21 22:53 UTC NOAA

Station name not available
Aug 21, 2019 - 06:53 PM EDT / 2019.08.21 2253 UTC
Wind: from the ESE (120 degrees) at 12 MPH (10 KT):0
Visibility: 10 mile(s):0
Sky conditions: clear
Weather: Lightning observed
Temperature: 88.0 F (31.1 C)
Heat index: 96.6 F (35.9 C):1
Dew Point: 73.9 F (23.3 C)
Relative Humidity: 63%
Pressure (altimeter): 30.05 in. Hg (1017 hPa)
ob: KGIF 212253Z AUTO 12010KT 10SM CLR 31/23 A3005 RMK AO2 LTG DSNT SE AND W SLP172 T03110233
cycle: 23

Station Type Date Time Source
KGIF TAF UTC NOAA

Error!

Example: see airport list